sensor_id;sensor_type;location;lat;lon;timestamp;P1;durP1;ratioP1;P2;durP2;ratioP2
53505;SDS011;39388;50.936;6.848;2022-12-10T00:00:54;32.30;;;21.00;;
53505;SDS011;39388;50.936;6.848;2022-12-10T00:03:25;35.00;;;20.10;;
53505;SDS011;39388;50.936;6.848;2022-12-10T00:05:58;37.97;;;21.33;;
53505;SDS011;39388;50.936;6.848;2022-12-10T00:08:29;32.47;;;19.85;;
53505;SDS011;39388;50.936;6.848;2022-12-10T00:11:04;32.75;;;20.85;;
53505;SDS011;39388;50.936;6.848;2022-12-10T00:13:35;32.53;;;21.25;;
53505;SDS011;39388;50.936;6.848;2022-12-10T00:16:07;35.00;;;21.50;;
53505;SDS011;39388;50.936;6.848;2022-12-10T00:18:40;32.42;;;20.98;;
53505;SDS011;39388;50.936;6.848;2022-12-10T00:21:11;34.25;;;21.02;;
53505;SDS011;39388;50.936;6.848;2022-12-10T00:23:45;34.83;;;21.27;;
53505;SDS011;39388;50.936;6.848;2022-12-10T00:26:17;32.25;;;20.83;;
53505;SDS011;39388;50.936;6.848;2022-12-10T00:28:49;33.30;;;20.77;;
53505;SDS011;39388;50.936;6.848;2022-12-10T00:31:21;34.15;;;20.70;;
53505;SDS011;39388;50.936;6.848;2022-12-10T00:34:01;29.73;;;19.60;;
53505;SDS011;39388;50.936;6.848;2022-12-10T00:36:35;32.17;;;20.02;;
53505;SDS011;39388;50.936;6.848;2022-12-10T00:39:16;30.55;;;20.77;;
53505;SDS011;39388;50.936;6.848;2022-12-10T00:41:48;32.65;;;20.27;;
53505;SDS011;39388;50.936;6.848;2022-12-10T00:44:19;29.10;;;19.48;;
53505;SDS011;39388;50.936;6.848;2022-12-10T00:46:49;31.10;;;19.52;;
53505;SDS011;39388;50.936;6.848;2022-12-10T00:49:20;33.03;;;21.92;;
53505;SDS011;39388;50.936;6.848;2022-12-10T00:51:53;32.90;;;21.45;;
53505;SDS011;39388;50.936;6.848;2022-12-10T00:54:23;36.95;;;21.60;;
53505;SDS011;39388;50.936;6.848;2022-12-10T00:56:53;30.77;;;20.70;;
53505;SDS011;39388;50.936;6.848;2022-12-10T00:59:24;29.10;;;20.23;;
53505;SDS011;39388;50.936;6.848;2022-12-10T01:01:54;32.08;;;20.90;;
53505;SDS011;39388;50.936;6.848;2022-12-10T01:04:24;32.65;;;20.33;;
53505;SDS011;39388;50.936;6.848;2022-12-10T01:06:55;34.47;;;21.60;;
53505;SDS011;39388;50.936;6.848;2022-12-10T01:09:26;33.17;;;19.65;;
53505;SDS011;39388;50.936;6.848;2022-12-10T01:12:00;32.28;;;21.15;;
53505;SDS011;39388;50.936;6.848;2022-12-10T01:14:33;34.40;;;20.40;;
53505;SDS011;39388;50.936;6.848;2022-12-10T01:17:04;35.88;;;21.30;;
53505;SDS011;39388;50.936;6.848;2022-12-10T01:19:35;33.08;;;19.95;;
53505;SDS011;39388;50.936;6.848;2022-12-10T01:22:05;32.80;;;21.17;;
53505;SDS011;39388;50.936;6.848;2022-12-10T01:24:36;30.38;;;20.23;;
53505;SDS011;39388;50.936;6.848;2022-12-10T01:27:06;34.00;;;20.90;;
53505;SDS011;39388;50.936;6.848;2022-12-10T01:29:40;30.23;;;19.48;;
53505;SDS011;39388;50.936;6.848;2022-12-10T01:32:10;30.20;;;20.40;;
53505;SDS011;39388;50.936;6.848;2022-12-10T01:34:40;32.53;;;20.45;;
53505;SDS011;39388;50.936;6.848;2022-12-10T01:37:11;33.63;;;20.45;;
53505;SDS011;39388;50.936;6.848;2022-12-10T01:39:41;36.35;;;21.90;;
53505;SDS011;39388;50.936;6.848;2022-12-10T01:42:12;34.83;;;21.17;;
53505;SDS011;39388;50.936;6.848;2022-12-10T01:47:14;36.28;;;21.35;;
53505;SDS011;39388;50.936;6.848;2022-12-10T01:49:44;35.20;;;20.70;;
53505;SDS011;39388;50.936;6.848;2022-12-10T01:52:14;33.13;;;20.45;;
53505;SDS011;39388;50.936;6.848;2022-12-10T01:54:45;33.08;;;21.58;;
53505;SDS011;39388;50.936;6.848;2022-12-10T01:57:17;33.33;;;20.38;;
53505;SDS011;39388;50.936;6.848;2022-12-10T02:07:46;32.05;;;20.48;;
53505;SDS011;39388;50.936;6.848;2022-12-10T02:11:14;31.15;;;20.08;;
53505;SDS011;39388;50.936;6.848;2022-12-10T02:13:36;29.92;;;19.10;;
53505;SDS011;39388;50.936;6.848;2022-12-10T02:16:14;31.10;;;19.55;;
53505;SDS011;39388;50.936;6.848;2022-12-10T02:18:54;30.33;;;18.77;;
53505;SDS011;39388;50.936;6.848;2022-12-10T02:21:30;34.67;;;22.23;;
53505;SDS011;39388;50.936;6.848;2022-12-10T02:24:05;32.88;;;20.23;;
53505;SDS011;39388;50.936;6.848;2022-12-10T02:29:21;31.33;;;19.20;;
53505;SDS011;39388;50.936;6.848;2022-12-10T02:32:06;32.25;;;20.17;;
53505;SDS011;39388;50.936;6.848;2022-12-10T02:34:47;38.63;;;19.98;;
53505;SDS011;39388;50.936;6.848;2022-12-10T02:37:30;34.25;;;21.05;;
53505;SDS011;39388;50.936;6.848;2022-12-10T02:40:08;34.08;;;19.65;;
53505;SDS011;39388;50.936;6.848;2022-12-10T02:42:44;37.85;;;19.67;;
53505;SDS011;39388;50.936;6.848;2022-12-10T02:45:18;30.52;;;19.15;;
53505;SDS011;39388;50.936;6.848;2022-12-10T02:47:53;32.65;;;19.55;;
53505;SDS011;39388;50.936;6.848;2022-12-10T02:50:26;30.80;;;19.65;;
53505;SDS011;39388;50.936;6.848;2022-12-10T02:52:57;30.75;;;19.50;;
53505;SDS011;39388;50.936;6.848;2022-12-10T02:55:29;27.92;;;18.35;;
53505;SDS011;39388;50.936;6.848;2022-12-10T02:58:23;30.15;;;19.52;;
53505;SDS011;39388;50.936;6.848;2022-12-10T03:06:41;30.08;;;19.40;;
53505;SDS011;39388;50.936;6.848;2022-12-10T03:09:19;29.33;;;19.58;;
53505;SDS011;39388;50.936;6.848;2022-12-10T03:12:02;31.63;;;18.48;;
53505;SDS011;39388;50.936;6.848;2022-12-10T03:14:39;33.85;;;19.52;;
53505;SDS011;39388;50.936;6.848;2022-12-10T03:17:11;30.35;;;19.20;;
53505;SDS011;39388;50.936;6.848;2022-12-10T03:19:44;31.25;;;19.15;;
53505;SDS011;39388;50.936;6.848;2022-12-10T03:22:18;29.23;;;19.27;;
53505;SDS011;39388;50.936;6.848;2022-12-10T03:24:50;29.42;;;19.02;;
53505;SDS011;39388;50.936;6.848;2022-12-10T03:27:21;31.65;;;19.27;;
53505;SDS011;39388;50.936;6.848;2022-12-10T03:29:54;30.50;;;17.05;;
53505;SDS011;39388;50.936;6.848;2022-12-10T03:32:27;29.23;;;18.10;;
53505;SDS011;39388;50.936;6.848;2022-12-10T03:34:59;28.73;;;17.63;;
53505;SDS011;39388;50.936;6.848;2022-12-10T03:37:31;33.47;;;18.95;;
53505;SDS011;39388;50.936;6.848;2022-12-10T03:40:03;31.60;;;18.63;;
53505;SDS011;39388;50.936;6.848;2022-12-10T03:42:35;30.23;;;18.45;;
53505;SDS011;39388;50.936;6.848;2022-12-10T03:45:06;33.35;;;19.05;;
53505;SDS011;39388;50.936;6.848;2022-12-10T03:47:37;29.27;;;18.63;;
53505;SDS011;39388;50.936;6.848;2022-12-10T03:50:08;27.98;;;17.98;;
53505;SDS011;39388;50.936;6.848;2022-12-10T03:52:39;28.88;;;17.25;;
53505;SDS011;39388;50.936;6.848;2022-12-10T03:55:09;26.15;;;17.08;;
53505;SDS011;39388;50.936;6.848;2022-12-10T03:57:40;24.55;;;16.40;;
53505;SDS011;39388;50.936;6.848;2022-12-10T04:00:11;27.45;;;17.60;;
53505;SDS011;39388;50.936;6.848;2022-12-10T04:02:41;30.27;;;17.92;;
53505;SDS011;39388;50.936;6.848;2022-12-10T04:05:12;31.50;;;17.42;;
53505;SDS011;39388;50.936;6.848;2022-12-10T04:07:42;26.17;;;16.48;;
53505;SDS011;39388;50.936;6.848;2022-12-10T04:10:12;28.92;;;16.35;;
53505;SDS011;39388;50.936;6.848;2022-12-10T04:12:43;25.40;;;15.88;;
53505;SDS011;39388;50.936;6.848;2022-12-10T04:15:33;23.88;;;15.48;;
53505;SDS011;39388;50.936;6.848;2022-12-10T04:18:26;27.70;;;16.88;;
53505;SDS011;39388;50.936;6.848;2022-12-10T04:20:56;24.60;;;15.80;;
53505;SDS011;39388;50.936;6.848;2022-12-10T04:23:45;28.00;;;15.95;;
53505;SDS011;39388;50.936;6.848;2022-12-10T04:26:34;27.10;;;15.73;;
53505;SDS011;39388;50.936;6.848;2022-12-10T04:29:23;24.80;;;15.85;;
53505;SDS011;39388;50.936;6.848;2022-12-10T04:31:55;24.92;;;15.98;;
53505;SDS011;39388;50.936;6.848;2022-12-10T04:34:27;24.17;;;15.75;;
53505;SDS011;39388;50.936;6.848;2022-12-10T04:36:58;25.92;;;17.15;;
53505;SDS011;39388;50.936;6.848;2022-12-10T04:39:29;28.85;;;15.88;;
53505;SDS011;39388;50.936;6.848;2022-12-10T04:42:00;23.92;;;15.18;;
53505;SDS011;39388;50.936;6.848;2022-12-10T04:44:31;27.73;;;16.27;;
53505;SDS011;39388;50.936;6.848;2022-12-10T04:47:05;27.35;;;15.40;;
53505;SDS011;39388;50.936;6.848;2022-12-10T04:49:37;27.13;;;16.85;;
53505;SDS011;39388;50.936;6.848;2022-12-10T04:52:08;25.67;;;15.35;;
53505;SDS011;39388;50.936;6.848;2022-12-10T04:54:42;25.20;;;15.40;;
53505;SDS011;39388;50.936;6.848;2022-12-10T04:57:13;30.08;;;16.15;;
53505;SDS011;39388;50.936;6.848;2022-12-10T04:59:44;26.80;;;15.80;;
53505;SDS011;39388;50.936;6.848;2022-12-10T05:02:14;25.33;;;15.50;;
53505;SDS011;39388;50.936;6.848;2022-12-10T05:04:44;26.30;;;16.00;;
53505;SDS011;39388;50.936;6.848;2022-12-10T05:07:15;26.52;;;15.95;;
53505;SDS011;39388;50.936;6.848;2022-12-10T05:09:45;27.70;;;16.65;;
53505;SDS011;39388;50.936;6.848;2022-12-10T05:12:15;26.67;;;16.02;;
53505;SDS011;39388;50.936;6.848;2022-12-10T05:14:46;26.63;;;16.42;;
53505;SDS011;39388;50.936;6.848;2022-12-10T05:17:16;27.05;;;15.13;;
53505;SDS011;39388;50.936;6.848;2022-12-10T05:19:47;27.20;;;16.25;;
53505;SDS011;39388;50.936;6.848;2022-12-10T05:22:17;27.10;;;15.57;;
53505;SDS011;39388;50.936;6.848;2022-12-10T05:25:06;23.77;;;15.50;;
53505;SDS011;39388;50.936;6.848;2022-12-10T05:27:36;25.10;;;14.88;;
53505;SDS011;39388;50.936;6.848;2022-12-10T05:30:07;27.15;;;16.27;;
53505;SDS011;39388;50.936;6.848;2022-12-10T05:32:39;26.30;;;15.83;;
53505;SDS011;39388;50.936;6.848;2022-12-10T05:35:09;27.70;;;15.13;;
53505;SDS011;39388;50.936;6.848;2022-12-10T05:37:40;28.33;;;16.77;;
53505;SDS011;39388;50.936;6.848;2022-12-10T05:40:10;23.75;;;16.02;;
53505;SDS011;39388;50.936;6.848;2022-12-10T05:42:41;23.60;;;15.32;;
53505;SDS011;39388;50.936;6.848;2022-12-10T05:45:11;25.35;;;15.82;;
53505;SDS011;39388;50.936;6.848;2022-12-10T05:47:41;26.15;;;15.50;;
53505;SDS011;39388;50.936;6.848;2022-12-10T05:50:12;27.63;;;16.90;;
53505;SDS011;39388;50.936;6.848;2022-12-10T05:52:42;27.30;;;16.60;;
53505;SDS011;39388;50.936;6.848;2022-12-10T05:55:12;25.13;;;15.15;;
53505;SDS011;39388;50.936;6.848;2022-12-10T05:57:43;26.90;;;16.10;;
53505;SDS011;39388;50.936;6.848;2022-12-10T06:00:13;24.67;;;15.82;;
53505;SDS011;39388;50.936;6.848;2022-12-10T06:02:44;25.10;;;15.85;;
53505;SDS011;39388;50.936;6.848;2022-12-10T06:05:14;27.67;;;16.85;;
53505;SDS011;39388;50.936;6.848;2022-12-10T06:07:45;32.45;;;18.38;;
53505;SDS011;39388;50.936;6.848;2022-12-10T06:10:15;29.05;;;16.80;;
53505;SDS011;39388;50.936;6.848;2022-12-10T06:12:45;28.35;;;16.52;;
53505;SDS011;39388;50.936;6.848;2022-12-10T06:15:16;26.58;;;16.65;;
53505;SDS011;39388;50.936;6.848;2022-12-10T06:17:46;29.48;;;17.52;;
53505;SDS011;39388;50.936;6.848;2022-12-10T06:20:17;28.65;;;15.93;;
53505;SDS011;39388;50.936;6.848;2022-12-10T06:22:47;27.73;;;16.92;;
53505;SDS011;39388;50.936;6.848;2022-12-10T06:25:17;29.23;;;15.73;;
53505;SDS011;39388;50.936;6.848;2022-12-10T06:27:48;28.30;;;17.33;;
53505;SDS011;39388;50.936;6.848;2022-12-10T06:30:19;25.55;;;17.55;;
53505;SDS011;39388;50.936;6.848;2022-12-10T06:32:49;28.63;;;16.88;;
53505;SDS011;39388;50.936;6.848;2022-12-10T06:35:19;28.17;;;17.67;;
53505;SDS011;39388;50.936;6.848;2022-12-10T06:37:50;30.77;;;18.05;;
53505;SDS011;39388;50.936;6.848;2022-12-10T06:40:21;35.22;;;18.92;;
53505;SDS011;39388;50.936;6.848;2022-12-10T06:42:51;36.08;;;17.63;;
53505;SDS011;39388;50.936;6.848;2022-12-10T06:45:22;38.72;;;19.88;;
53505;SDS011;39388;50.936;6.848;2022-12-10T06:47:52;39.83;;;19.58;;
53505;SDS011;39388;50.936;6.848;2022-12-10T06:50:23;32.67;;;18.17;;
53505;SDS011;39388;50.936;6.848;2022-12-10T06:52:53;41.65;;;19.25;;
53505;SDS011;39388;50.936;6.848;2022-12-10T06:55:23;44.80;;;21.13;;
53505;SDS011;39388;50.936;6.848;2022-12-10T06:57:54;41.33;;;21.33;;
53505;SDS011;39388;50.936;6.848;2022-12-10T07:00:24;51.88;;;23.42;;
53505;SDS011;39388;50.936;6.848;2022-12-10T07:02:55;49.70;;;23.00;;
53505;SDS011;39388;50.936;6.848;2022-12-10T07:05:25;56.53;;;24.08;;
53505;SDS011;39388;50.936;6.848;2022-12-10T07:07:55;54.33;;;23.77;;
53505;SDS011;39388;50.936;6.848;2022-12-10T07:10:26;46.65;;;24.10;;
53505;SDS011;39388;50.936;6.848;2022-12-10T07:12:56;54.10;;;24.17;;
53505;SDS011;39388;50.936;6.848;2022-12-10T07:15:26;51.65;;;24.08;;
53505;SDS011;39388;50.936;6.848;2022-12-10T07:17:58;46.65;;;24.67;;
53505;SDS011;39388;50.936;6.848;2022-12-10T07:20:29;50.20;;;24.15;;
53505;SDS011;39388;50.936;6.848;2022-12-10T07:22:59;47.97;;;22.38;;
53505;SDS011;39388;50.936;6.848;2022-12-10T07:25:30;48.33;;;22.42;;
53505;SDS011;39388;50.936;6.848;2022-12-10T07:28:00;39.63;;;21.05;;
53505;SDS011;39388;50.936;6.848;2022-12-10T07:30:30;43.90;;;22.40;;
53505;SDS011;39388;50.936;6.848;2022-12-10T07:33:01;41.03;;;20.73;;
53505;SDS011;39388;50.936;6.848;2022-12-10T07:35:32;43.80;;;22.00;;
53505;SDS011;39388;50.936;6.848;2022-12-10T07:38:02;43.35;;;22.83;;
53505;SDS011;39388;50.936;6.848;2022-12-10T07:40:33;45.03;;;21.90;;
53505;SDS011;39388;50.936;6.848;2022-12-10T07:43:03;42.60;;;21.90;;
53505;SDS011;39388;50.936;6.848;2022-12-10T07:45:34;39.53;;;21.23;;
53505;SDS011;39388;50.936;6.848;2022-12-10T07:48:04;43.53;;;22.88;;
53505;SDS011;39388;50.936;6.848;2022-12-10T07:50:35;45.47;;;23.08;;
53505;SDS011;39388;50.936;6.848;2022-12-10T07:53:05;42.92;;;24.17;;
53505;SDS011;39388;50.936;6.848;2022-12-10T07:55:36;44.97;;;23.42;;
53505;SDS011;39388;50.936;6.848;2022-12-10T07:58:06;42.92;;;23.13;;
53505;SDS011;39388;50.936;6.848;2022-12-10T08:00:37;42.88;;;22.05;;
53505;SDS011;39388;50.936;6.848;2022-12-10T08:03:07;41.75;;;22.73;;
53505;SDS011;39388;50.936;6.848;2022-12-10T08:05:37;48.47;;;24.95;;
53505;SDS011;39388;50.936;6.848;2022-12-10T08:08:08;45.60;;;23.63;;
53505;SDS011;39388;50.936;6.848;2022-12-10T08:10:39;49.03;;;23.38;;
53505;SDS011;39388;50.936;6.848;2022-12-10T08:13:09;44.45;;;22.10;;
53505;SDS011;39388;50.936;6.848;2022-12-10T08:15:39;49.50;;;24.60;;
53505;SDS011;39388;50.936;6.848;2022-12-10T08:18:10;49.17;;;25.20;;
53505;SDS011;39388;50.936;6.848;2022-12-10T08:20:40;46.38;;;23.10;;
53505;SDS011;39388;50.936;6.848;2022-12-10T08:23:10;42.78;;;21.63;;
53505;SDS011;39388;50.936;6.848;2022-12-10T08:25:41;46.67;;;22.60;;
53505;SDS011;39388;50.936;6.848;2022-12-10T08:28:11;48.22;;;24.67;;
53505;SDS011;39388;50.936;6.848;2022-12-10T08:30:45;47.53;;;25.10;;
53505;SDS011;39388;50.936;6.848;2022-12-10T08:33:18;48.85;;;24.35;;
53505;SDS011;39388;50.936;6.848;2022-12-10T08:35:48;48.35;;;24.33;;
53505;SDS011;39388;50.936;6.848;2022-12-10T08:38:19;47.20;;;24.80;;
53505;SDS011;39388;50.936;6.848;2022-12-10T08:40:49;51.63;;;24.67;;
53505;SDS011;39388;50.936;6.848;2022-12-10T08:43:19;49.72;;;24.88;;
53505;SDS011;39388;50.936;6.848;2022-12-10T08:45:50;51.05;;;24.90;;
53505;SDS011;39388;50.936;6.848;2022-12-10T08:48:21;45.45;;;24.30;;
53505;SDS011;39388;50.936;6.848;2022-12-10T08:50:51;50.42;;;25.60;;
53505;SDS011;39388;50.936;6.848;2022-12-10T08:53:22;44.92;;;22.60;;
53505;SDS011;39388;50.936;6.848;2022-12-10T08:55:53;52.85;;;25.95;;
53505;SDS011;39388;50.936;6.848;2022-12-10T08:58:23;50.80;;;24.67;;
53505;SDS011;39388;50.936;6.848;2022-12-10T09:00:54;51.95;;;25.50;;
53505;SDS011;39388;50.936;6.848;2022-12-10T09:03:25;50.10;;;25.05;;
53505;SDS011;39388;50.936;6.848;2022-12-10T09:05:55;50.05;;;25.52;;
53505;SDS011;39388;50.936;6.848;2022-12-10T09:08:26;47.67;;;24.08;;
53505;SDS011;39388;50.936;6.848;2022-12-10T09:10:56;49.28;;;26.02;;
53505;SDS011;39388;50.936;6.848;2022-12-10T09:13:26;47.00;;;24.98;;
53505;SDS011;39388;50.936;6.848;2022-12-10T09:15:57;51.80;;;26.10;;
53505;SDS011;39388;50.936;6.848;2022-12-10T09:18:27;47.60;;;23.83;;
53505;SDS011;39388;50.936;6.848;2022-12-10T09:20:57;43.72;;;22.85;;
53505;SDS011;39388;50.936;6.848;2022-12-10T09:23:28;49.88;;;24.13;;
53505;SDS011;39388;50.936;6.848;2022-12-10T09:25:58;51.75;;;25.73;;
53505;SDS011;39388;50.936;6.848;2022-12-10T09:28:29;51.50;;;26.58;;
53505;SDS011;39388;50.936;6.848;2022-12-10T09:30:59;45.83;;;23.23;;
53505;SDS011;39388;50.936;6.848;2022-12-10T09:33:31;44.85;;;23.75;;
53505;SDS011;39388;50.936;6.848;2022-12-10T09:36:03;46.85;;;24.80;;
53505;SDS011;39388;50.936;6.848;2022-12-10T09:38:37;51.15;;;25.33;;
53505;SDS011;39388;50.936;6.848;2022-12-10T09:47:02;51.13;;;26.25;;
53505;SDS011;39388;50.936;6.848;2022-12-10T09:52:38;49.63;;;24.00;;
53505;SDS011;39388;50.936;6.848;2022-12-10T09:55:13;48.95;;;25.15;;
53505;SDS011;39388;50.936;6.848;2022-12-10T09:57:46;56.80;;;25.95;;
53505;SDS011;39388;50.936;6.848;2022-12-10T10:02:52;53.20;;;25.00;;
53505;SDS011;39388;50.936;6.848;2022-12-10T10:05:40;52.60;;;24.13;;
53505;SDS011;39388;50.936;6.848;2022-12-10T10:08:32;48.88;;;24.42;;
53505;SDS011;39388;50.936;6.848;2022-12-10T10:11:09;54.92;;;25.00;;
53505;SDS011;39388;50.936;6.848;2022-12-10T10:13:51;46.30;;;24.55;;
53505;SDS011;39388;50.936;6.848;2022-12-10T10:16:27;47.10;;;24.83;;
53505;SDS011;39388;50.936;6.848;2022-12-10T10:19:04;45.63;;;22.73;;
53505;SDS011;39388;50.936;6.848;2022-12-10T10:21:42;46.47;;;22.45;;
53505;SDS011;39388;50.936;6.848;2022-12-10T10:24:16;49.30;;;25.58;;
53505;SDS011;39388;50.936;6.848;2022-12-10T10:26:51;50.22;;;24.10;;
53505;SDS011;39388;50.936;6.848;2022-12-10T10:29:26;48.83;;;23.48;;
53505;SDS011;39388;50.936;6.848;2022-12-10T10:34:52;48.13;;;23.25;;
53505;SDS011;39388;50.936;6.848;2022-12-10T10:37:29;48.10;;;23.77;;
53505;SDS011;39388;50.936;6.848;2022-12-10T10:42:58;49.97;;;22.92;;
53505;SDS011;39388;50.936;6.848;2022-12-10T10:48:03;51.88;;;25.05;;
53505;SDS011;39388;50.936;6.848;2022-12-10T10:50:39;49.75;;;23.50;;
53505;SDS011;39388;50.936;6.848;2022-12-10T10:55:56;44.72;;;22.33;;
53505;SDS011;39388;50.936;6.848;2022-12-10T10:58:29;49.53;;;23.23;;
53505;SDS011;39388;50.936;6.848;2022-12-10T11:01:04;47.28;;;22.58;;
53505;SDS011;39388;50.936;6.848;2022-12-10T11:03:37;48.50;;;22.92;;
53505;SDS011;39388;50.936;6.848;2022-12-10T11:06:16;46.30;;;22.98;;
53505;SDS011;39388;50.936;6.848;2022-12-10T11:08:47;50.67;;;23.80;;
53505;SDS011;39388;50.936;6.848;2022-12-10T11:11:19;50.75;;;27.92;;
53505;SDS011;39388;50.936;6.848;2022-12-10T11:13:55;46.20;;;22.33;;
53505;SDS011;39388;50.936;6.848;2022-12-10T11:17:12;43.53;;;21.98;;
53505;SDS011;39388;50.936;6.848;2022-12-10T11:20:13;47.65;;;24.27;;
53505;SDS011;39388;50.936;6.848;2022-12-10T11:22:50;37.42;;;19.33;;
53505;SDS011;39388;50.936;6.848;2022-12-10T11:28:43;39.97;;;19.08;;
53505;SDS011;39388;50.936;6.848;2022-12-10T11:34:09;34.30;;;17.27;;
53505;SDS011;39388;50.936;6.848;2022-12-10T11:48:28;34.08;;;17.05;;
53505;SDS011;39388;50.936;6.848;2022-12-10T12:13:57;30.33;;;16.98;;
53505;SDS011;39388;50.936;6.848;2022-12-10T12:16:48;32.00;;;16.63;;
53505;SDS011;39388;50.936;6.848;2022-12-10T12:19:38;33.65;;;16.70;;
53505;SDS011;39388;50.936;6.848;2022-12-10T12:22:14;30.40;;;15.90;;
53505;SDS011;39388;50.936;6.848;2022-12-10T12:25:02;29.10;;;15.98;;
53505;SDS011;39388;50.936;6.848;2022-12-10T12:27:51;29.95;;;16.55;;
53505;SDS011;39388;50.936;6.848;2022-12-10T12:30:29;34.25;;;17.42;;
53505;SDS011;39388;50.936;6.848;2022-12-10T12:33:10;31.67;;;17.55;;
53505;SDS011;39388;50.936;6.848;2022-12-10T12:35:47;30.67;;;16.52;;
53505;SDS011;39388;50.936;6.848;2022-12-10T12:43:44;26.48;;;15.25;;
53505;SDS011;39388;50.936;6.848;2022-12-10T12:46:27;31.38;;;17.10;;
53505;SDS011;39388;50.936;6.848;2022-12-10T12:49:08;26.27;;;15.02;;
53505;SDS011;39388;50.936;6.848;2022-12-10T12:51:43;27.90;;;14.48;;
53505;SDS011;39388;50.936;6.848;2022-12-10T12:54:18;27.85;;;15.27;;
53505;SDS011;39388;50.936;6.848;2022-12-10T12:56:59;27.45;;;15.25;;
53505;SDS011;39388;50.936;6.848;2022-12-10T12:59:53;27.00;;;15.52;;
53505;SDS011;39388;50.936;6.848;2022-12-10T13:05:12;28.17;;;14.77;;
53505;SDS011;39388;50.936;6.848;2022-12-10T13:08:33;25.50;;;14.57;;
53505;SDS011;39388;50.936;6.848;2022-12-10T13:24:43;22.90;;;14.90;;
53505;SDS011;39388;50.936;6.848;2022-12-10T13:27:19;25.52;;;14.18;;
53505;SDS011;39388;50.936;6.848;2022-12-10T13:43:25;27.75;;;15.55;;
53505;SDS011;39388;50.936;6.848;2022-12-10T13:49:03;28.80;;;15.85;;
53505;SDS011;39388;50.936;6.848;2022-12-10T13:57:17;27.10;;;15.23;;
53505;SDS011;39388;50.936;6.848;2022-12-10T14:00:15;28.50;;;15.85;;
53505;SDS011;39388;50.936;6.848;2022-12-10T14:08:26;23.08;;;14.25;;
53505;SDS011;39388;50.936;6.848;2022-12-10T14:11:00;31.40;;;15.10;;
53505;SDS011;39388;50.936;6.848;2022-12-10T14:16:12;28.60;;;15.20;;
53505;SDS011;39388;50.936;6.848;2022-12-10T14:18:46;32.40;;;17.17;;
53505;SDS011;39388;50.936;6.848;2022-12-10T14:21:23;30.92;;;16.52;;
53505;SDS011;39388;50.936;6.848;2022-12-10T14:23:54;32.55;;;17.20;;
53505;SDS011;39388;50.936;6.848;2022-12-10T14:26:29;33.05;;;18.42;;
53505;SDS011;39388;50.936;6.848;2022-12-10T14:29:08;26.42;;;16.48;;
53505;SDS011;39388;50.936;6.848;2022-12-10T14:31:48;30.85;;;17.33;;
53505;SDS011;39388;50.936;6.848;2022-12-10T14:34:24;34.33;;;18.08;;
53505;SDS011;39388;50.936;6.848;2022-12-10T14:36:57;36.75;;;17.50;;
53505;SDS011;39388;50.936;6.848;2022-12-10T14:39:32;29.15;;;16.00;;
53505;SDS011;39388;50.936;6.848;2022-12-10T14:42:04;32.70;;;17.60;;
53505;SDS011;39388;50.936;6.848;2022-12-10T14:44:37;36.17;;;17.25;;
53505;SDS011;39388;50.936;6.848;2022-12-10T14:47:16;35.50;;;18.35;;
53505;SDS011;39388;50.936;6.848;2022-12-10T14:49:50;32.10;;;17.75;;
53505;SDS011;39388;50.936;6.848;2022-12-10T14:52:24;33.63;;;16.85;;
53505;SDS011;39388;50.936;6.848;2022-12-10T14:55:02;34.55;;;19.05;;
53505;SDS011;39388;50.936;6.848;2022-12-10T14:57:38;38.75;;;19.67;;
53505;SDS011;39388;50.936;6.848;2022-12-10T15:00:17;32.42;;;18.77;;
53505;SDS011;39388;50.936;6.848;2022-12-10T15:02:54;35.70;;;19.00;;
53505;SDS011;39388;50.936;6.848;2022-12-10T15:05:30;33.75;;;18.83;;
53505;SDS011;39388;50.936;6.848;2022-12-10T15:08:15;30.27;;;17.40;;
53505;SDS011;39388;50.936;6.848;2022-12-10T15:10:49;36.03;;;18.23;;
53505;SDS011;39388;50.936;6.848;2022-12-10T15:13:23;34.47;;;18.20;;
53505;SDS011;39388;50.936;6.848;2022-12-10T15:15:59;31.92;;;17.45;;
53505;SDS011;39388;50.936;6.848;2022-12-10T15:18:32;35.22;;;18.35;;
53505;SDS011;39388;50.936;6.848;2022-12-10T15:21:13;31.38;;;18.27;;
53505;SDS011;39388;50.936;6.848;2022-12-10T15:23:47;34.78;;;18.45;;
53505;SDS011;39388;50.936;6.848;2022-12-10T15:26:22;38.22;;;20.15;;
53505;SDS011;39388;50.936;6.848;2022-12-10T15:32:00;37.55;;;19.33;;
53505;SDS011;39388;50.936;6.848;2022-12-10T15:35:21;34.75;;;19.15;;
53505;SDS011;39388;50.936;6.848;2022-12-10T15:37:40;31.38;;;18.40;;
53505;SDS011;39388;50.936;6.848;2022-12-10T15:40:25;30.77;;;17.92;;
53505;SDS011;39388;50.936;6.848;2022-12-10T15:45:53;34.08;;;19.00;;
53505;SDS011;39388;50.936;6.848;2022-12-10T15:48:24;33.22;;;17.58;;
53505;SDS011;39388;50.936;6.848;2022-12-10T15:50:58;33.55;;;18.08;;
53505;SDS011;39388;50.936;6.848;2022-12-10T15:53:29;30.80;;;16.75;;
53505;SDS011;39388;50.936;6.848;2022-12-10T15:56:06;33.28;;;19.45;;
53505;SDS011;39388;50.936;6.848;2022-12-10T15:58:36;31.38;;;17.00;;
53505;SDS011;39388;50.936;6.848;2022-12-10T16:01:08;31.27;;;16.67;;
53505;SDS011;39388;50.936;6.848;2022-12-10T16:03:43;31.23;;;16.73;;
53505;SDS011;39388;50.936;6.848;2022-12-10T16:06:13;32.20;;;17.83;;
53505;SDS011;39388;50.936;6.848;2022-12-10T16:08:44;31.52;;;17.27;;
53505;SDS011;39388;50.936;6.848;2022-12-10T16:11:17;28.15;;;17.67;;
53505;SDS011;39388;50.936;6.848;2022-12-10T16:13:50;31.48;;;17.35;;
53505;SDS011;39388;50.936;6.848;2022-12-10T16:16:23;33.45;;;17.67;;
53505;SDS011;39388;50.936;6.848;2022-12-10T16:18:54;30.98;;;17.63;;
53505;SDS011;39388;50.936;6.848;2022-12-10T16:21:25;30.92;;;17.48;;
53505;SDS011;39388;50.936;6.848;2022-12-10T16:23:56;31.45;;;17.70;;
53505;SDS011;39388;50.936;6.848;2022-12-10T16:26:26;35.30;;;18.98;;
53505;SDS011;39388;50.936;6.848;2022-12-10T16:28:57;32.22;;;18.05;;
53505;SDS011;39388;50.936;6.848;2022-12-10T16:31:27;35.35;;;17.60;;
53505;SDS011;39388;50.936;6.848;2022-12-10T16:33:57;32.88;;;16.10;;
53505;SDS011;39388;50.936;6.848;2022-12-10T16:36:28;32.75;;;16.80;;
53505;SDS011;39388;50.936;6.848;2022-12-10T16:38:58;30.55;;;17.25;;
53505;SDS011;39388;50.936;6.848;2022-12-10T16:41:29;27.60;;;16.45;;
53505;SDS011;39388;50.936;6.848;2022-12-10T16:43:59;30.63;;;16.30;;
53505;SDS011;39388;50.936;6.848;2022-12-10T16:46:29;37.30;;;17.88;;
53505;SDS011;39388;50.936;6.848;2022-12-10T16:49:00;30.17;;;16.63;;
53505;SDS011;39388;50.936;6.848;2022-12-10T16:51:30;28.92;;;16.48;;
53505;SDS011;39388;50.936;6.848;2022-12-10T16:54:02;30.02;;;16.55;;
53505;SDS011;39388;50.936;6.848;2022-12-10T16:56:33;28.95;;;17.45;;
53505;SDS011;39388;50.936;6.848;2022-12-10T16:59:03;29.98;;;17.27;;
53505;SDS011;39388;50.936;6.848;2022-12-10T17:01:34;29.85;;;16.35;;
53505;SDS011;39388;50.936;6.848;2022-12-10T17:04:05;30.05;;;16.13;;
53505;SDS011;39388;50.936;6.848;2022-12-10T17:06:35;33.20;;;18.10;;
53505;SDS011;39388;50.936;6.848;2022-12-10T17:09:05;35.22;;;18.15;;
53505;SDS011;39388;50.936;6.848;2022-12-10T17:11:39;32.92;;;17.50;;
53505;SDS011;39388;50.936;6.848;2022-12-10T17:16:56;30.75;;;16.00;;
53505;SDS011;39388;50.936;6.848;2022-12-10T17:19:36;38.45;;;19.38;;
53505;SDS011;39388;50.936;6.848;2022-12-10T17:22:08;32.30;;;18.25;;